LFMD Airport Information

Runway Information
Runway 04 Length 2493 ft width 59 ft
Elevation 7 ft Threshold ft Heading 44
Runway 22 Length 2493 ft Width 59 ft
Elevation 10 ft Threshold ft Heading 224
Runway 17 Length 5052 ft width 148 ft
Elevation 14 ft Threshold ft Heading 173
Runway 35 Length 5052 ft Width 148 ft
Elevation 7 ft Threshold ft Heading 353
Runway 17L Length 1804 ft width 164 ft
Elevation 11 ft Threshold ft Heading 173
Runway 35R Length 1804 ft Width 164 ft
Elevation 8 ft Threshold ft Heading 353
Airport Frequencies
Type ATIS Name CANNES ATI Frequency 127.475 MHZ
Type GND Name CANNES GND Frequency 121.8 MHZ
Type TWR Name CANNES TWR Frequency 118.625 MHZ
Airport Navaids
Type VOR Name Cannes Frequency 111400 KHZ
Airport Weather Information & NOTAM
ADDS - METARS form results

(1626 UTC 05 October 2022)
Data provider http://aviationweather.gov/metar/data/
 
METAR text: LFMD 051600Z AUTO 18005KT 150V220 CAVOK 22/18 Q1025 NOSIG
Conditions at: LFMD (CANNES/MANDELIEU, FR) observed 1600 UTC 05 October 2022
Temperature: 22.0°C (72°F)
Dewpoint: 18.0°C (64°F) [RH = 78%]
Pressure (altimeter): 30.27 inches Hg (1025.0 mb)
Winds: from the S (180 degrees) at 6 MPH (5 knots; 2.6 m/s)
Visibility: 6 or more miles (10+ km)
Ceiling: ceiling and visibility are OK
Clouds: unknown
Weather: no significant weather observed at this time

METAR text: LFMD 051530Z AUTO 17005KT 120V220 CAVOK 22/18 Q1025 NOSIG
Conditions at: LFMD (CANNES/MANDELIEU, FR) observed 1530 UTC 05 October 2022
Temperature: 22.0°C (72°F)
Dewpoint: 18.0°C (64°F) [RH = 78%]
Pressure (altimeter): 30.27 inches Hg (1025.0 mb)
Winds: from the S (170 degrees) at 6 MPH (5 knots; 2.6 m/s)
Visibility: 6 or more miles (10+ km)
Ceiling: ceiling and visibility are OK
Clouds: unknown
Weather: no significant weather observed at this time

Forecast for: LFMD (CANNES/MANDELIEU, FR)
Text: TAF LFMD 051400Z 0515/0615 15006KT CAVOK
Forecast period: 1500 UTC 05 October 2022 to 1500 UTC 06 October 2022
Forecast type: FROM: standard forecast or significant change
Winds: from the SSE (150 degrees) at 7 MPH (6 knots; 3.1 m/s)
Visibility: 6 or more miles (10+ km)
Ceiling: unknown
Clouds: missing
Weather: NSW  (no significant weather)